Mehoopany, Pennsylvania
Current Conditions -  °F | °C
As of 9:54 AM on Tuesday 21 Oct 2014 (Local Time) from KAVP Reporting Station
Broken Clouds Broken Clouds  
Wind Chill: 55°   Ceiling: 4200
Heat Index: 55°   Visibility: 10mi
Dew Point: 49°   Wind: 0mph
Humidity: 80%   Direction: NA
Pressure: 29.87"   Gusts: NA
Location:  41.56°N, 76.06°W
Report Text: KAVP 211354Z 00000KT 10SM BKN042 BKN050 13/09 A2987 RMK AO2 SLP113 T01280094
Loading
Personal Weather Stations






























Interactive Weather Map
Tropical Storm Tracking
New forecast layout! Learn more

10-Day Weather Forecast

Advertisements
Track Severe Weather on mobile